Terminal Aerodrome Forecast
Issued by NWS

Current Version | Previous Version | Text Only | Print | Product List | Glossary On
Versions: 1 2 3 4 5 6 7 8 9 10 11 12 13 14 15 16 17 18 19 20 21 22 23
000
FTUS43 KGRR 021140
TAFAZO
TAF
KAZO 021140Z 0212/0312 02008KT 4SM BR VCSH OVC006
     FM021500 03008KT P6SM OVC012
     FM021700 05006KT P6SM OVC025
     FM021900 05008KT P6SM OVC035
     FM030200 00000KT P6SM SCT050=

USA.gov is the U.S. government's official web portal to all federal, state and local government web resources and services.